Time;durP1;ratioP1;P1;durP2;ratioP2;P2;SDS_P1;SDS_P2;PMS_P1;PMS_P2;Temp;Humidity;BMP_temperature;BMP_pressure;BME280_temperature;BME280_humidity;BME280_pressure;Samples;Min_cycle;Max_cycle;Signal;HPM_P1;HPM_P2
2022/10/01 00:01:30;;;;;;;;;;;21.60;43.50;20.40;100113.00;;;;5091895;28;19917;-71
2022/10/01 00:04:16;;;;;;;;;;;21.60;43.50;20.40;100115.00;;;;5095064;28;19923;-71
2022/10/01 00:07:06;;;;;;;;;;;21.70;43.60;20.40;100103.00;;;;5098387;28;19920;-71
2022/10/01 00:09:52;;;;;;;;;;;21.60;43.50;20.40;100105.00;;;;5101741;28;19920;-71
2022/10/01 00:12:38;;;;;;;;;;;21.60;43.60;20.40;100108.00;;;;5101014;28;19927;-71
2022/10/01 00:15:25;;;;;;;;;;;21.70;43.60;20.40;100096.00;;;;5111849;27;20245;-71
2022/10/01 00:18:11;;;;;;;;;;;21.60;43.60;20.40;100092.00;;;;5101301;28;19920;-71
2022/10/01 00:20:57;;;;;;;;;;;21.60;43.60;20.40;100093.00;;;;5094743;28;19939;-70
2022/10/01 00:23:43;;;;;;;;;;;21.60;43.60;20.40;100091.00;;;;5096911;28;20568;-70
2022/10/01 00:26:31;;;;;;;;;;;21.60;43.60;20.40;100090.00;;;;5114234;27;20361;-71
2022/10/01 00:29:17;;;;;;;;;;;21.70;43.60;20.40;100085.00;;;;5097173;28;20006;-71
2022/10/01 00:32:03;;;;;;;;;;;21.60;43.60;20.40;100083.00;;;;5104055;28;19916;-71
2022/10/01 00:34:49;;;;;;;;;;;21.60;43.60;20.40;100088.00;;;;5102521;28;20281;-71
2022/10/01 00:37:36;;;;;;;;;;;21.70;43.60;20.40;100085.00;;;;5094233;28;19923;-71
2022/10/01 00:40:22;;;;;;;;;;;21.60;43.60;20.40;100085.00;;;;5101320;28;20365;-71
2022/10/01 00:43:28;;;;;;;;;;;21.60;43.60;20.40;100092.00;;;;5096592;28;19924;-71
2022/10/01 00:46:16;;;;;;;;;;;21.60;43.60;20.40;100086.00;;;;5106864;27;20012;-71
2022/10/01 00:49:13;;;;;;;;;;;21.60;43.60;20.40;100092.00;;;;5110119;27;20328;-71
2022/10/01 00:52:01;;;;;;;;;;;21.60;43.60;20.40;100091.00;;;;5082542;28;19927;-70
2022/10/01 00:54:52;;;;;;;;;;;21.60;43.60;20.40;100082.00;;;;5111084;27;19951;-71
2022/10/01 00:57:38;;;;;;;;;;;21.60;44.40;20.40;100082.00;;;;5074709;28;19920;-71
2022/10/01 01:00:24;;;;;;;;;;;21.60;43.60;20.40;100080.00;;;;5109836;27;20032;-71
2022/10/01 01:03:10;;;;;;;;;;;21.60;43.70;20.40;100078.00;;;;5100518;28;19916;-71
2022/10/01 01:05:56;;;;;;;;;;;21.70;43.70;20.40;100074.00;;;;5113915;27;19931;-71
2022/10/01 01:08:42;;;;;;;;;;;21.60;43.70;20.40;100069.00;;;;5097559;28;19924;-71
2022/10/01 01:12:18;;;;;;;;;;;21.60;43.70;20.40;100061.00;;;;5094199;28;19920;-71
2022/10/01 01:15:43;;;;;;;;;;;21.60;43.70;20.40;100063.00;;;;5050611;28;19915;-71
2022/10/01 01:18:51;;;;;;;;;;;21.60;43.80;20.40;100051.00;;;;5093563;28;19916;-71
2022/10/01 01:21:42;;;;;;;;;;;21.60;43.80;20.40;100048.00;;;;5107241;27;19916;-71
2022/10/01 01:24:48;;;;;;;;;;;21.60;43.80;20.40;100041.00;;;;5110136;27;19915;-71
2022/10/01 01:27:36;;;;;;;;;;;21.60;43.80;20.40;100038.00;;;;5111510;27;20220;-71
2022/10/01 01:30:22;;;;;;;;;;;21.60;43.80;20.40;100025.00;;;;5108513;27;20002;-71
2022/10/01 01:33:13;;;;;;;;;;;21.60;43.80;20.40;100022.00;;;;5110447;27;19973;-71
2022/10/01 01:36:05;;;;;;;;;;;21.70;43.80;20.40;100013.00;;;;5097027;28;20097;-71
2022/10/01 01:38:54;;;;;;;;;;;21.60;43.90;20.40;100006.00;;;;5073143;28;19920;-71
2022/10/01 01:41:48;;;;;;;;;;;21.60;43.90;20.40;99997.00;;;;5095336;27;19920;-71
2022/10/01 01:44:37;;;;;;;;;;;21.60;43.80;20.40;99985.00;;;;5104624;27;19972;-71
2022/10/01 01:47:23;;;;;;;;;;;21.60;43.90;20.40;99980.00;;;;5097769;28;19922;-71
2022/10/01 01:50:09;;;;;;;;;;;21.70;44.60;20.40;99976.00;;;;5096227;28;19973;-70
2022/10/01 01:52:56;;;;;;;;;;;21.70;43.90;20.40;99973.00;;;;5102096;28;19964;-70
2022/10/01 01:55:42;;;;;;;;;;;21.60;43.90;20.40;99973.00;;;;5104630;28;19963;-71
2022/10/01 01:58:29;;;;;;;;;;;21.70;43.90;20.40;99967.00;;;;5115410;27;19924;-70
2022/10/01 02:01:50;;;;;;;;;;;21.60;43.90;20.40;99952.00;;;;5069073;28;20281;-71
2022/10/01 02:04:40;;;;;;;;;;;21.70;44.00;20.40;99952.00;;;;5041539;28;20023;-71
2022/10/01 02:07:44;;;;;;;;;;;21.70;44.00;20.40;99939.00;;;;5086412;28;19920;-70
2022/10/01 02:10:45;;;;;;;;;;;21.70;44.00;20.40;99928.00;;;;5101205;28;20037;-70
2022/10/01 02:13:58;;;;;;;;;;;21.60;44.00;20.40;99917.00;;;;5085842;28;19920;-71
2022/10/01 02:16:50;;;;;;;;;;;21.60;44.00;20.40;99914.00;;;;5114974;27;19916;-71
2022/10/01 02:19:43;;;;;;;;;;;21.60;44.00;20.40;99911.00;;;;5103089;28;20423;-71
2022/10/01 02:22:36;;;;;;;;;;;21.60;44.10;20.40;99908.00;;;;5101063;28;19930;-70
2022/10/01 02:25:25;;;;;;;;;;;21.60;44.10;20.40;99898.00;;;;5083749;28;20429;-71
2022/10/01 02:28:16;;;;;;;;;;;21.60;44.10;20.40;99903.00;;;;5113185;27;19915;-71
2022/10/01 02:31:02;;;;;;;;;;;21.60;44.10;20.40;99889.00;;;;5086045;28;20326;-70
2022/10/01 02:33:50;;;;;;;;;;;21.60;44.10;20.40;99875.00;;;;5097105;28;19927;-70
2022/10/01 02:36:36;;;;;;;;;;;21.60;44.20;20.40;99873.00;;;;5102175;28;19951;-71
2022/10/01 02:39:22;;;;;;;;;;;21.60;44.20;20.40;99852.00;;;;5086464;28;20373;-71
2022/10/01 02:42:10;;;;;;;;;;;21.60;44.20;20.40;99844.00;;;;5114999;27;19934;-71
2022/10/01 02:44:57;;;;;;;;;;;21.60;44.20;20.40;99837.00;;;;5086264;28;19937;-71
2022/10/01 02:47:48;;;;;;;;;;;21.60;44.20;20.40;99835.00;;;;5112191;27;19971;-71
2022/10/01 02:50:41;;;;;;;;;;;21.60;44.30;20.40;99836.00;;;;5096074;28;19953;-71
2022/10/01 02:53:33;;;;;;;;;;;21.60;44.30;20.40;99827.00;;;;5114822;27;19920;-71
2022/10/01 02:57:21;;;;;;;;;;;21.60;44.30;20.40;99818.00;;;;5113533;27;20387;-71
2022/10/01 02:59:25;;;;;;;;;;;21.60;44.30;20.40;99807.00;;;;5098434;28;19966;-71
2022/10/01 03:02:11;;;;;;;;;;;21.60;44.30;20.40;99818.00;;;;5097490;28;19927;-71
2022/10/01 03:04:57;;;;;;;;;;;21.60;44.30;20.40;99817.00;;;;5099453;28;20365;-71
2022/10/01 03:07:43;;;;;;;;;;;21.60;44.40;20.40;99813.00;;;;5113302;27;19916;-71
2022/10/01 03:10:29;;;;;;;;;;;21.60;44.40;20.40;99809.00;;;;5100634;28;20039;-71
2022/10/01 03:13:17;;;;;;;;;;;21.60;44.40;20.40;99801.00;;;;5084344;28;20029;-71
2022/10/01 03:16:03;;;;;;;;;;;21.60;44.40;20.40;99806.00;;;;5086562;28;19996;-71
2022/10/01 03:18:49;;;;;;;;;;;21.60;44.40;20.40;99800.00;;;;5102950;28;19915;-71
2022/10/01 03:21:35;;;;;;;;;;;21.60;44.50;20.40;99787.00;;;;5097139;28;20276;-71
2022/10/01 03:24:21;;;;;;;;;;;21.60;44.50;20.40;99780.00;;;;5086246;28;20250;-71
2022/10/01 03:27:07;;;;;;;;;;;21.60;44.50;20.40;99769.00;;;;5103431;28;19916;-71
2022/10/01 03:29:53;;;;;;;;;;;21.60;44.50;20.40;99768.00;;;;5104162;28;20323;-71
2022/10/01 03:32:39;;;;;;;;;;;21.60;44.50;20.40;99768.00;;;;5102773;28;19922;-70
2022/10/01 03:35:25;;;;;;;;;;;21.60;44.50;20.40;99771.00;;;;5084833;28;19927;-70
2022/10/01 03:38:12;;;;;;;;;;;21.60;44.50;20.40;99770.00;;;;5097656;28;20269;-70
2022/10/01 03:40:58;;;;;;;;;;;21.60;44.70;20.40;99767.00;;;;5102851;28;19962;-70
2022/10/01 03:43:44;;;;;;;;;;;21.60;44.60;20.40;99760.00;;;;5108214;28;20020;-71
2022/10/01 03:46:30;;;;;;;;;;;21.60;44.70;20.40;99742.00;;;;5103341;28;20384;-71
2022/10/01 03:49:16;;;;;;;;;;;21.70;44.70;20.30;99738.00;;;;5106139;28;19920;-71
2022/10/01 03:52:03;;;;;;;;;;;21.60;44.60;20.30;99737.00;;;;5105043;28;20351;-71
2022/10/01 03:54:48;;;;;;;;;;;21.60;44.70;20.30;99737.00;;;;5106749;28;20386;-71
2022/10/01 03:57:34;;;;;;;;;;;21.60;44.70;20.30;99729.00;;;;5105247;28;19920;-71
2022/10/01 04:00:20;;;;;;;;;;;21.60;44.70;20.30;99743.00;;;;5104996;28;19927;-71
2022/10/01 04:03:06;;;;;;;;;;;21.60;44.70;20.30;99739.00;;;;5107938;28;19919;-71
2022/10/01 04:05:52;;;;;;;;;;;21.50;44.70;20.30;99738.00;;;;5101380;28;19919;-71
2022/10/01 04:08:38;;;;;;;;;;;21.50;44.70;20.30;99729.00;;;;5104891;28;20001;-71
2022/10/01 04:11:25;;;;;;;;;;;21.50;44.70;20.20;99720.00;;;;5104915;28;19915;-71
2022/10/01 04:14:11;;;;;;;;;;;21.50;44.80;20.20;99735.00;;;;5117746;27;20429;-71
2022/10/01 04:16:57;;;;;;;;;;;21.50;44.80;20.20;99728.00;;;;5104162;28;20323;-71
2022/10/01 04:19:43;;;;;;;;;;;21.40;44.80;20.20;99740.00;;;;5103951;28;19922;-71
2022/10/01 04:22:29;;;;;;;;;;;21.40;44.80;20.20;99739.00;;;;5102293;28;19970;-71
2022/10/01 04:25:15;;;;;;;;;;;21.40;44.80;20.20;99731.00;;;;5105684;28;19919;-71
2022/10/01 04:28:06;;;;;;;;;;;21.40;44.90;20.20;99727.00;;;;5119242;27;20392;-71
2022/10/01 04:31:23;;;;;;;;;;;21.40;44.90;20.20;99719.00;;;;5103252;28;19977;-71
2022/10/01 04:33:57;;;;;;;;;;;21.40;45.00;20.20;99704.00;;;;5102588;28;20195;-71
2022/10/01 04:36:43;;;;;;;;;;;21.40;45.00;20.20;99705.00;;;;5099653;28;19916;-71
2022/10/01 04:39:30;;;;;;;;;;;21.40;45.00;20.10;99712.00;;;;5104487;28;19988;-71
2022/10/01 04:42:16;;;;;;;;;;;21.40;45.00;20.10;99700.00;;;;5103677;28;19930;-71
2022/10/01 04:45:02;;;;;;;;;;;21.40;45.00;20.10;99686.00;;;;5104639;28;19923;-71
2022/10/01 04:47:48;;;;;;;;;;;21.40;45.00;20.20;99686.00;;;;5103183;28;19927;-71
2022/10/01 04:50:35;;;;;;;;;;;21.40;45.00;20.20;99683.00;;;;5100451;28;20006;-71
2022/10/01 04:53:21;;;;;;;;;;;21.30;45.00;20.20;99684.00;;;;5104071;28;19927;-71
2022/10/01 04:56:06;;;;;;;;;;;21.40;45.10;20.20;99681.00;;;;5103382;28;19920;-71
2022/10/01 04:58:52;;;;;;;;;;;21.40;45.20;20.20;99686.00;;;;5102410;28;20288;-71
2022/10/01 05:01:40;;;;;;;;;;;21.30;45.10;20.20;99685.00;;;;5103437;28;19931;-71
2022/10/01 05:04:26;;;;;;;;;;;21.30;45.10;20.20;99679.00;;;;5100070;28;19920;-71
2022/10/01 05:07:12;;;;;;;;;;;21.30;45.10;20.20;99682.00;;;;5104120;28;19919;-71
2022/10/01 05:09:59;;;;;;;;;;;21.40;45.20;20.20;99678.00;;;;5099592;28;19924;-71
2022/10/01 05:12:46;;;;;;;;;;;21.40;45.20;20.20;99680.00;;;;5088167;28;20405;-71
2022/10/01 05:15:32;;;;;;;;;;;21.40;45.20;20.20;99671.00;;;;5085440;28;20022;-71
2022/10/01 05:18:18;;;;;;;;;;;21.40;45.30;20.20;99678.00;;;;5103372;28;20412;-71
2022/10/01 05:21:04;;;;;;;;;;;21.30;45.20;20.20;99678.00;;;;5101958;28;19928;-71
2022/10/01 05:23:51;;;;;;;;;;;21.40;45.30;20.10;99674.00;;;;5090440;28;20341;-71
2022/10/01 05:26:38;;;;;;;;;;;21.30;45.30;20.10;99672.00;;;;5102206;28;20063;-71
2022/10/01 05:29:24;;;;;;;;;;;21.30;45.20;20.10;99679.00;;;;5106207;28;19920;-71
2022/10/01 05:32:11;;;;;;;;;;;21.30;45.30;20.10;99681.00;;;;5104330;28;20280;-71
2022/10/01 05:34:57;;;;;;;;;;;21.30;45.30;20.10;99676.00;;;;5101531;28;19955;-71
2022/10/01 05:37:43;;;;;;;;;;;21.30;45.30;20.10;99668.00;;;;5100679;28;19920;-71
2022/10/01 05:40:29;;;;;;;;;;;21.30;45.30;20.10;99674.00;;;;5100562;28;19923;-71
2022/10/01 05:43:15;;;;;;;;;;;21.40;45.50;20.10;99678.00;;;;5098037;28;19916;-71
2022/10/01 05:46:02;;;;;;;;;;;21.30;45.40;20.10;99672.00;;;;5085489;28;20387;-70
2022/10/01 05:48:50;;;;;;;;;;;21.30;45.40;20.10;99674.00;;;;5105185;28;19928;-71
2022/10/01 05:51:36;;;;;;;;;;;21.30;45.40;20.10;99682.00;;;;5089314;28;20018;-71
2022/10/01 05:54:22;;;;;;;;;;;21.30;45.50;20.10;99683.00;;;;5101558;28;19963;-70
2022/10/01 05:57:08;;;;;;;;;;;21.30;45.50;20.10;99684.00;;;;5098396;28;19931;-71
2022/10/01 05:59:56;;;;;;;;;;;21.30;45.50;20.10;99675.00;;;;5102779;28;19961;-71
2022/10/01 06:02:42;;;;;;;;;;;21.30;45.50;20.10;99673.00;;;;5097643;28;19920;-71
2022/10/01 06:05:28;;;;;;;;;;;21.30;45.50;20.10;99673.00;;;;5099536;28;20014;-71
2022/10/01 06:08:14;;;;;;;;;;;21.30;45.50;20.10;99678.00;;;;5112113;27;19922;-71
2022/10/01 06:11:00;;;;;;;;;;;21.30;45.50;20.10;99680.00;;;;5083276;28;19920;-71
2022/10/01 06:13:46;;;;;;;;;;;21.30;45.60;20.10;99671.00;;;;5101048;28;19915;-71
2022/10/01 06:16:32;;;;;;;;;;;21.30;45.60;20.10;99678.00;;;;5101062;28;19991;-71
2022/10/01 06:19:18;;;;;;;;;;;21.30;45.60;20.10;99676.00;;;;5101274;28;19973;-71
2022/10/01 06:22:04;;;;;;;;;;;21.30;45.60;20.10;99675.00;;;;5101365;28;19919;-71
2022/10/01 06:24:50;;;;;;;;;;;21.30;45.60;20.10;99683.00;;;;5101481;27;20153;-71
2022/10/01 06:27:36;;;;;;;;;;;21.30;45.70;20.10;99678.00;;;;5103111;27;19916;-71
2022/10/01 06:30:30;;;;;;;;;;;21.30;45.70;20.10;99679.00;;;;5109334;27;19924;-71
2022/10/01 06:33:16;;;;;;;;;;;21.30;45.70;20.10;99679.00;;;;5099591;28;19916;-71
2022/10/01 06:36:03;;;;;;;;;;;21.30;45.70;20.10;99688.00;;;;5083615;28;19920;-71
2022/10/01 06:38:49;;;;;;;;;;;21.30;45.80;20.10;99681.00;;;;5083862;28;19920;-71
2022/10/01 06:41:35;;;;;;;;;;;21.30;45.80;20.10;99696.00;;;;5069816;28;20143;-71
2022/10/01 06:44:21;;;;;;;;;;;21.30;45.80;20.00;99684.00;;;;5075609;28;19916;-71
2022/10/01 06:47:07;;;;;;;;;;;21.30;45.80;20.00;99694.00;;;;5075489;28;19946;-71
2022/10/01 06:49:53;;;;;;;;;;;21.30;45.90;20.00;99702.00;;;;5081048;28;19962;-71
2022/10/01 06:52:48;;;;;;;;;;;21.30;46.00;20.00;99712.00;;;;5079399;28;19950;-71
2022/10/01 06:55:35;;;;;;;;;;;21.30;45.90;20.00;99696.00;;;;5080224;28;19916;-71
2022/10/01 06:58:22;;;;;;;;;;;21.30;46.00;20.00;99706.00;;;;5078175;28;20015;-71
2022/10/01 07:01:08;;;;;;;;;;;21.40;46.00;20.00;99695.00;;;;5080006;28;19925;-71
2022/10/01 07:03:54;;;;;;;;;;;21.30;46.00;20.00;99696.00;;;;5082900;28;20022;-71
2022/10/01 07:06:40;;;;;;;;;;;21.20;45.90;20.00;99695.00;;;;5076443;28;19920;-71
2022/10/01 07:09:26;;;;;;;;;;;21.30;46.00;20.00;99702.00;;;;5081065;28;19920;-71
2022/10/01 07:12:12;;;;;;;;;;;21.20;46.10;20.00;99701.00;;;;5084283;28;19947;-71
2022/10/01 07:14:58;;;;;;;;;;;21.30;46.10;20.00;99713.00;;;;5078974;28;19931;-71
2022/10/01 07:17:45;;;;;;;;;;;21.20;46.10;20.00;99713.00;;;;5083709;28;19916;-71
2022/10/01 07:20:34;;;;;;;;;;;21.20;46.10;20.00;99709.00;;;;5070270;28;19959;-71
2022/10/01 07:23:23;;;;;;;;;;;21.20;46.10;20.00;99722.00;;;;5090648;28;20432;-71
2022/10/01 07:26:09;;;;;;;;;;;21.30;46.50;20.00;99725.00;;;;5077706;28;19943;-71
2022/10/01 07:28:55;;;;;;;;;;;21.20;46.20;20.00;99719.00;;;;5088292;28;19924;-71
2022/10/01 07:31:41;;;;;;;;;;;21.20;46.20;20.00;99721.00;;;;5079747;28;19916;-71
2022/10/01 07:34:27;;;;;;;;;;;21.20;46.20;20.00;99728.00;;;;5077447;28;19966;-71
2022/10/01 07:37:13;;;;;;;;;;;21.20;46.20;20.00;99730.00;;;;5092726;28;19917;-71
2022/10/01 07:39:59;;;;;;;;;;;21.30;46.40;20.00;99729.00;;;;5085023;28;19920;-71
2022/10/01 07:42:55;;;;;;;;;;;21.20;46.30;20.00;99736.00;;;;5084461;28;19927;-71
2022/10/01 07:45:41;;;;;;;;;;;21.20;47.00;20.00;99748.00;;;;5081009;28;20031;-71
2022/10/01 07:48:27;;;;;;;;;;;21.30;46.50;20.00;99738.00;;;;5082456;28;19923;-71
2022/10/01 07:51:13;;;;;;;;;;;21.30;46.50;20.00;99736.00;;;;5077863;28;19924;-71
2022/10/01 07:53:59;;;;;;;;;;;21.30;46.50;20.00;99731.00;;;;5064896;28;19916;-71
2022/10/01 07:56:44;;;;;;;;;;;21.30;46.60;20.00;99752.00;;;;5079235;28;19938;-71
2022/10/01 07:59:31;;;;;;;;;;;21.30;46.50;20.00;99759.00;;;;5078490;28;19923;-70
2022/10/01 08:02:17;;;;;;;;;;;21.30;47.20;20.00;99748.00;;;;5078661;28;20377;-71
2022/10/01 08:05:16;;;;;;;;;;;21.20;46.50;20.00;99743.00;;;;5079964;28;20373;-71
2022/10/01 08:08:04;;;;;;;;;;;21.30;46.50;20.00;99752.00;;;;5079960;28;19942;-71
2022/10/01 08:10:50;;;;;;;;;;;21.30;46.50;20.00;99755.00;;;;5086268;28;19924;-71
2022/10/01 08:13:36;;;;;;;;;;;21.30;46.70;20.00;99762.00;;;;5082676;28;19958;-70
2022/10/01 08:16:22;;;;;;;;;;;21.20;46.50;20.00;99765.00;;;;5081567;28;20231;-71
2022/10/01 08:19:08;;;;;;;;;;;21.30;46.70;20.10;99758.00;;;;5081307;28;19928;-70
2022/10/01 08:21:54;;;;;;;;;;;21.30;46.70;20.00;99769.00;;;;5082732;28;20336;-71
2022/10/01 08:24:40;;;;;;;;;;;21.30;46.60;20.10;99768.00;;;;5080621;28;20381;-70
2022/10/01 08:27:26;;;;;;;;;;;21.30;46.60;20.10;99771.00;;;;5086550;28;20381;-71
2022/10/01 08:30:12;;;;;;;;;;;21.30;46.80;20.10;99770.00;;;;5085437;28;19919;-71
2022/10/01 08:32:58;;;;;;;;;;;21.30;46.70;20.10;99775.00;;;;5087066;28;20289;-71
2022/10/01 08:35:44;;;;;;;;;;;21.30;46.70;20.10;99776.00;;;;5095788;28;20370;-71
2022/10/01 08:38:30;;;;;;;;;;;21.30;46.80;20.10;99776.00;;;;5082954;28;20102;-71
2022/10/01 08:41:26;;;;;;;;;;;21.30;46.70;20.10;99780.00;;;;5082891;28;20278;-71
2022/10/01 08:44:18;;;;;;;;;;;21.30;46.70;20.10;99782.00;;;;5067187;28;19930;-72
2022/10/01 08:47:09;;;;;;;;;;;21.30;46.70;20.10;99788.00;;;;5084339;28;20439;-71
2022/10/01 08:49:58;;;;;;;;;;;21.40;46.70;20.10;99800.00;;;;5097894;27;19931;-71
2022/10/01 08:52:51;;;;;;;;;;;21.40;46.90;20.10;99798.00;;;;5079409;28;19927;-71
2022/10/01 08:55:37;;;;;;;;;;;21.30;46.80;20.10;99811.00;;;;5077629;28;19920;-71
2022/10/01 08:58:25;;;;;;;;;;;21.30;46.70;20.10;99803.00;;;;5082734;28;20393;-72
2022/10/01 09:01:12;;;;;;;;;;;21.40;46.80;20.10;99807.00;;;;5047053;28;19915;-71
2022/10/01 09:03:58;;;;;;;;;;;21.40;46.80;20.10;99809.00;;;;5082228;28;19920;-71
2022/10/01 09:06:44;;;;;;;;;;;21.40;46.80;20.10;99808.00;;;;5082536;28;20405;-71
2022/10/01 09:09:39;;;;;;;;;;;21.40;46.80;20.20;99823.00;;;;5070278;28;20385;-71
2022/10/01 09:12:46;;;;;;;;;;;21.40;46.80;20.20;99822.00;;;;5071815;28;20328;-71
2022/10/01 09:15:57;;;;;;;;;;;21.40;46.90;20.20;99832.00;;;;5071562;28;20382;-71
2022/10/01 09:18:49;;;;;;;;;;;21.40;46.90;20.20;99837.00;;;;5081739;28;20273;-71
2022/10/01 09:21:46;;;;;;;;;;;21.40;46.90;20.20;99836.00;;;;5086895;28;19923;-71
2022/10/01 09:24:49;;;;;;;;;;;21.40;47.10;20.20;99848.00;;;;5079677;28;19970;-71
2022/10/01 09:27:35;;;;;;;;;;;21.40;47.20;20.10;99841.00;;;;5092514;28;19923;-71
2022/10/01 09:30:22;;;;;;;;;;;21.40;47.20;20.10;99850.00;;;;5047896;28;19920;-72
2022/10/01 09:33:18;;;;;;;;;;;21.40;47.20;20.10;99845.00;;;;5058690;28;20018;-72
2022/10/01 09:36:04;;;;;;;;;;;21.40;47.30;20.10;99849.00;;;;5077446;28;19917;-71
2022/10/01 09:39:02;;;;;;;;;;;21.40;47.10;20.10;99845.00;;;;5075957;28;20026;-71
2022/10/01 09:41:48;;;;;;;;;;;21.40;47.10;20.10;99847.00;;;;5063296;28;19916;-71
2022/10/01 09:44:35;;;;;;;;;;;21.40;47.20;20.20;99849.00;;;;5058685;28;19916;-71
2022/10/01 09:47:21;;;;;;;;;;;21.40;47.30;20.20;99849.00;;;;5051697;28;19926;-71
2022/10/01 09:50:10;;;;;;;;;;;21.40;47.30;20.20;99856.00;;;;5062934;28;19946;-71
2022/10/01 09:52:57;;;;;;;;;;;21.40;47.40;20.20;99849.00;;;;5073194;28;20419;-71
2022/10/01 09:55:44;;;;;;;;;;;21.50;47.50;20.20;99854.00;;;;5071619;28;19970;-71
2022/10/01 09:58:30;;;;;;;;;;;21.40;47.50;20.20;99851.00;;;;5081370;27;20362;-71
2022/10/01 10:01:20;;;;;;;;;;;21.50;47.50;20.20;99860.00;;;;5081305;27;19924;-73
2022/10/01 10:04:06;;;;;;;;;;;21.30;47.40;20.20;99856.00;;;;5086161;28;19923;-73
2022/10/01 10:07:03;;;;;;;;;;;21.40;47.50;20.20;99862.00;;;;5083035;27;19920;-73
2022/10/01 10:09:49;;;;;;;;;;;21.50;47.50;20.10;99871.00;;;;5087859;28;19966;-71
2022/10/01 10:12:35;;;;;;;;;;;21.50;47.50;20.20;99868.00;;;;5059437;28;19955;-70
2022/10/01 10:15:22;;;;;;;;;;;21.40;47.50;20.10;99883.00;;;;5066607;28;19924;-71
2022/10/01 10:18:12;;;;;;;;;;;21.50;47.70;20.10;99880.00;;;;5087294;28;19943;-70
2022/10/01 10:21:00;;;;;;;;;;;21.40;47.60;20.10;99882.00;;;;5085390;28;19971;-70
2022/10/01 10:23:54;;;;;;;;;;;21.50;47.70;20.10;99887.00;;;;5083622;28;19916;-71
2022/10/01 10:26:42;;;;;;;;;;;21.50;47.80;20.10;99893.00;;;;5076376;28;19920;-71
2022/10/01 10:29:32;;;;;;;;;;;21.40;47.60;20.10;99895.00;;;;5071788;28;19935;-71
2022/10/01 10:32:23;;;;;;;;;;;21.50;47.80;20.20;99896.00;;;;5080994;28;19924;-71
2022/10/01 10:35:12;;;;;;;;;;;21.50;47.80;20.10;99885.00;;;;5050678;28;20652;-70
2022/10/01 10:37:58;;;;;;;;;;;21.50;47.70;20.20;99891.00;;;;5071839;28;20362;-70
2022/10/01 10:40:44;;;;;;;;;;;21.40;47.80;20.20;99889.00;;;;5088628;28;19916;-70
2022/10/01 10:43:33;;;;;;;;;;;21.50;47.90;20.20;99892.00;;;;5095040;28;19916;-71
2022/10/01 10:46:30;;;;;;;;;;;21.40;47.80;20.20;99893.00;;;;5083367;28;19920;-71
2022/10/01 10:49:18;;;;;;;;;;;21.50;47.80;20.20;99896.00;;;;5072946;28;19924;-71
2022/10/01 10:52:15;;;;;;;;;;;21.50;47.80;20.20;99895.00;;;;5088765;28;19916;-71
2022/10/01 10:55:37;;;;;;;;;;;21.50;48.00;20.20;99896.00;;;;5052356;28;19924;-70
2022/10/01 10:58:25;;;;;;;;;;;21.50;47.90;20.20;99891.00;;;;5028621;28;19928;-70
2022/10/01 11:01:12;;;;;;;;;;;21.50;47.90;20.20;99889.00;;;;5089256;27;20361;-70
2022/10/01 11:03:59;;;;;;;;;;;21.50;47.90;20.20;99898.00;;;;5089754;28;20385;-70
2022/10/01 11:07:00;;;;;;;;;;;21.60;48.00;20.20;99902.00;;;;5085438;28;20400;-71
2022/10/01 11:10:02;;;;;;;;;;;21.50;48.00;20.20;99906.00;;;;5088542;27;19931;-70
2022/10/01 11:12:59;;;;;;;;;;;21.60;47.90;20.20;99908.00;;;;5086312;28;19924;-71
2022/10/01 11:16:07;;;;;;;;;;;21.50;47.90;20.20;99910.00;;;;5088574;28;19959;-71
2022/10/01 11:19:06;;;;;;;;;;;21.60;48.00;20.20;99904.00;;;;5076392;28;20015;-70
2022/10/01 11:21:52;;;;;;;;;;;21.60;48.00;20.20;99921.00;;;;5051537;28;20266;-70
2022/10/01 11:24:41;;;;;;;;;;;21.60;48.10;20.30;99923.00;;;;5075461;28;19994;-70
2022/10/01 11:28:02;;;;;;;;;;;21.60;48.10;20.30;99924.00;;;;5090454;28;20160;-71
2022/10/01 11:31:16;;;;;;;;;;;21.60;48.20;20.30;99920.00;;;;5077259;28;20022;-71
2022/10/01 11:34:28;;;;;;;;;;;21.60;48.10;20.30;99924.00;;;;5077627;28;19926;-70
2022/10/01 11:37:37;;;;;;;;;;;21.60;48.20;20.30;99924.00;;;;5077748;28;19918;-70
2022/10/01 11:40:38;;;;;;;;;;;21.60;48.30;20.30;99924.00;;;;5085785;28;19920;-70
2022/10/01 11:43:31;;;;;;;;;;;21.60;48.20;20.30;99924.00;;;;5068794;28;19927;-70
2022/10/01 11:46:22;;;;;;;;;;;21.60;48.30;20.30;99927.00;;;;5090522;28;19924;-70
2022/10/01 11:49:28;;;;;;;;;;;21.60;48.30;20.30;99931.00;;;;5095753;28;19950;-71
2022/10/01 11:52:26;;;;;;;;;;;21.70;48.30;20.30;99926.00;;;;5087465;28;20024;-70
2022/10/01 11:58:51;;;;;;;;;;;21.60;48.30;20.30;99918.00;;;;5090987;28;19922;-70
2022/10/01 12:01:59;;;;;;;;;;;21.70;48.30;20.30;99919.00;;;;5072116;28;19973;-71
2022/10/01 12:04:57;;;;;;;;;;;21.70;48.30;20.30;99927.00;;;;5078327;28;19963;-70
2022/10/01 12:08:07;;;;;;;;;;;21.60;48.40;20.30;99936.00;;;;5083586;28;19927;-71
2022/10/01 12:11:12;;;;;;;;;;;21.70;48.50;20.30;99934.00;;;;5067048;28;19924;-71
2022/10/01 12:14:01;;;;;;;;;;;21.70;48.30;20.30;99922.00;;;;5084997;28;20289;-70
2022/10/01 12:16:58;;;;;;;;;;;21.60;48.30;20.40;99934.00;;;;5081447;28;19916;-70
2022/10/01 12:19:47;;;;;;;;;;;21.70;48.40;20.40;99936.00;;;;5069493;28;19924;-70
2022/10/01 12:22:34;;;;;;;;;;;21.70;48.30;20.40;99941.00;;;;5096702;27;19916;-71
2022/10/01 12:25:20;;;;;;;;;;;21.80;48.40;20.40;99939.00;;;;5064157;28;19923;-70
2022/10/01 12:28:11;;;;;;;;;;;21.70;49.20;20.40;99946.00;;;;5060744;28;19920;-70
2022/10/01 12:31:03;;;;;;;;;;;21.70;48.40;20.40;99949.00;;;;5080924;28;20009;-70
2022/10/01 12:34:01;;;;;;;;;;;21.70;48.40;20.40;99950.00;;;;5072172;28;20018;-70
2022/10/01 12:37:11;;;;;;;;;;;21.70;48.30;20.40;99953.00;;;;5086893;27;19920;-70
2022/10/01 12:40:16;;;;;;;;;;;21.70;48.40;20.40;99963.00;;;;5063423;28;20053;-70
2022/10/01 12:43:41;;;;;;;;;;;21.70;49.10;20.40;99986.00;;;;5081172;28;19916;-70
2022/10/01 12:46:36;;;;;;;;;;;21.70;48.30;20.40;99994.00;;;;5079276;28;20277;-70
2022/10/01 12:49:42;;;;;;;;;;;21.70;48.30;20.40;100027.00;;;;5068571;28;19928;-70
2022/10/01 12:53:05;;;;;;;;;;;21.70;48.20;20.50;100036.00;;;;5064792;28;19927;-70
2022/10/01 12:56:34;;;;;;;;;;;21.70;48.20;20.50;100041.00;;;;5087506;28;20258;-71
2022/10/01 12:59:31;;;;;;;;;;;21.80;48.20;20.50;100032.00;;;;5083114;28;20603;-71
2022/10/01 13:02:40;;;;;;;;;;;21.80;48.20;20.50;100033.00;;;;5077103;28;20372;-71
2022/10/01 13:05:47;;;;;;;;;;;21.80;48.10;20.50;100040.00;;;;5082019;28;19970;-71
2022/10/01 13:09:25;;;;;;;;;;;21.80;48.10;20.50;100042.00;;;;5079529;28;19916;-71
2022/10/01 13:12:22;;;;;;;;;;;21.80;48.10;20.50;100051.00;;;;5060923;28;20373;-71
2022/10/01 13:15:15;;;;;;;;;;;21.80;48.10;20.60;100054.00;;;;5092138;28;19990;-71
2022/10/01 13:18:19;;;;;;;;;;;21.80;48.20;20.60;100058.00;;;;5069820;28;20136;-70
2022/10/01 13:21:31;;;;;;;;;;;21.80;48.10;20.60;100047.00;;;;5078965;28;19962;-70
2022/10/01 13:24:31;;;;;;;;;;;21.90;48.80;20.60;100055.00;;;;5084265;28;21901;-70
2022/10/01 13:27:21;;;;;;;;;;;21.90;48.20;20.70;100051.00;;;;5085162;28;19943;-70
2022/10/01 13:30:19;;;;;;;;;;;21.80;48.10;20.60;100059.00;;;;5100748;27;19927;-70
2022/10/01 13:33:20;;;;;;;;;;;21.90;48.10;20.70;100060.00;;;;5086410;28;20469;-70
2022/10/01 13:36:07;;;;;;;;;;;21.90;48.10;20.70;100064.00;;;;5056664;28;19923;-70
2022/10/01 13:38:53;;;;;;;;;;;21.90;48.00;20.70;100057.00;;;;5077148;28;19936;-70
2022/10/01 13:41:39;;;;;;;;;;;22.00;48.10;20.70;100065.00;;;;5078431;28;19924;-70
2022/10/01 13:44:34;;;;;;;;;;;22.00;48.00;20.70;100081.00;;;;5075504;28;19943;-70
2022/10/01 13:47:20;;;;;;;;;;;22.00;48.00;20.70;100092.00;;;;5097125;28;19920;-70
2022/10/01 13:50:19;;;;;;;;;;;22.00;48.00;20.70;100092.00;;;;5087107;28;19929;-70
2022/10/01 13:53:13;;;;;;;;;;;22.00;47.90;20.80;100096.00;;;;5097513;27;20009;-70
2022/10/01 13:55:59;;;;;;;;;;;22.00;47.90;20.80;100099.00;;;;5099075;28;19939;-70